sensor_id;sensor_type;location;lat;lon;timestamp;temperature;humidity
3055;DHT22;1537;52.018;8.542;2022-09-28T00:02:04;8.20;74.30
3055;DHT22;1537;52.018;8.542;2022-09-28T00:05:29;8.20;74.40
3055;DHT22;1537;52.018;8.542;2022-09-28T00:08:54;8.20;74.00
3055;DHT22;1537;52.018;8.542;2022-09-28T00:12:18;8.10;73.00
3055;DHT22;1537;52.018;8.542;2022-09-28T00:15:42;8.10;73.30
3055;DHT22;1537;52.018;8.542;2022-09-28T00:19:06;8.20;73.20
3055;DHT22;1537;52.018;8.542;2022-09-28T00:22:31;8.10;73.10
3055;DHT22;1537;52.018;8.542;2022-09-28T00:25:54;8.10;72.80
3055;DHT22;1537;52.018;8.542;2022-09-28T00:29:21;8.10;72.90
3055;DHT22;1537;52.018;8.542;2022-09-28T00:32:45;8.10;72.80
3055;DHT22;1537;52.018;8.542;2022-09-28T00:36:08;8.00;73.30
3055;DHT22;1537;52.018;8.542;2022-09-28T00:39:33;7.90;73.90
3055;DHT22;1537;52.018;8.542;2022-09-28T00:43:17;7.90;74.30
3055;DHT22;1537;52.018;8.542;2022-09-28T00:46:42;7.90;74.90
3055;DHT22;1537;52.018;8.542;2022-09-28T00:50:09;8.00;75.00
3055;DHT22;1537;52.018;8.542;2022-09-28T00:53:35;8.10;74.90
3055;DHT22;1537;52.018;8.542;2022-09-28T00:57:02;8.20;75.00
3055;DHT22;1537;52.018;8.542;2022-09-28T01:00:26;8.20;75.00
3055;DHT22;1537;52.018;8.542;2022-09-28T01:03:50;8.20;74.80
3055;DHT22;1537;52.018;8.542;2022-09-28T01:07:15;8.30;75.00
3055;DHT22;1537;52.018;8.542;2022-09-28T01:10:39;8.30;74.80
3055;DHT22;1537;52.018;8.542;2022-09-28T01:14:11;8.30;74.40
3055;DHT22;1537;52.018;8.542;2022-09-28T01:17:48;8.30;74.40
3055;DHT22;1537;52.018;8.542;2022-09-28T01:21:20;8.30;74.60
3055;DHT22;1537;52.018;8.542;2022-09-28T01:24:45;8.30;74.40
3055;DHT22;1537;52.018;8.542;2022-09-28T01:28:13;8.30;74.70
3055;DHT22;1537;52.018;8.542;2022-09-28T01:31:40;8.40;75.00
3055;DHT22;1537;52.018;8.542;2022-09-28T01:35:09;8.50;74.70
3055;DHT22;1537;52.018;8.542;2022-09-28T01:38:36;8.40;74.60
3055;DHT22;1537;52.018;8.542;2022-09-28T01:42:06;8.40;75.00
3055;DHT22;1537;52.018;8.542;2022-09-28T01:45:35;8.50;75.10
3055;DHT22;1537;52.018;8.542;2022-09-28T01:49:05;8.30;74.70
3055;DHT22;1537;52.018;8.542;2022-09-28T01:52:33;8.40;75.10
3055;DHT22;1537;52.018;8.542;2022-09-28T01:56:00;8.40;75.40
3055;DHT22;1537;52.018;8.542;2022-09-28T01:59:27;8.50;75.40
3055;DHT22;1537;52.018;8.542;2022-09-28T02:02:57;8.50;75.50
3055;DHT22;1537;52.018;8.542;2022-09-28T02:06:34;8.60;75.50
3055;DHT22;1537;52.018;8.542;2022-09-28T02:10:03;8.60;75.30
3055;DHT22;1537;52.018;8.542;2022-09-28T02:13:32;8.60;75.00
3055;DHT22;1537;52.018;8.542;2022-09-28T02:16:57;8.60;75.50
3055;DHT22;1537;52.018;8.542;2022-09-28T02:20:28;8.60;74.80
3055;DHT22;1537;52.018;8.542;2022-09-28T02:23:56;8.50;74.80
3055;DHT22;1537;52.018;8.542;2022-09-28T02:27:28;8.40;75.00
3055;DHT22;1537;52.018;8.542;2022-09-28T02:30:54;8.40;75.00
3055;DHT22;1537;52.018;8.542;2022-09-28T02:34:18;8.50;75.20
3055;DHT22;1537;52.018;8.542;2022-09-28T02:37:44;8.50;75.10
3055;DHT22;1537;52.018;8.542;2022-09-28T02:41:16;8.50;75.00
3055;DHT22;1537;52.018;8.542;2022-09-28T02:44:55;8.50;74.40
3055;DHT22;1537;52.018;8.542;2022-09-28T02:48:43;8.50;74.60
3055;DHT22;1537;52.018;8.542;2022-09-28T02:52:52;8.60;74.60
3055;DHT22;1537;52.018;8.542;2022-09-28T03:00:07;8.60;74.00
3055;DHT22;1537;52.018;8.542;2022-09-28T03:03:41;8.60;73.50
3055;DHT22;1537;52.018;8.542;2022-09-28T03:07:17;8.60;73.70
3055;DHT22;1537;52.018;8.542;2022-09-28T03:10:48;8.50;73.50
3055;DHT22;1537;52.018;8.542;2022-09-28T03:14:14;8.50;73.20
3055;DHT22;1537;52.018;8.542;2022-09-28T03:17:48;8.50;73.40
3055;DHT22;1537;52.018;8.542;2022-09-28T03:21:14;8.60;73.50
3055;DHT22;1537;52.018;8.542;2022-09-28T03:24:38;8.60;73.60
3055;DHT22;1537;52.018;8.542;2022-09-28T03:28:03;8.70;73.50
3055;DHT22;1537;52.018;8.542;2022-09-28T03:31:30;8.60;73.00
3055;DHT22;1537;52.018;8.542;2022-09-28T03:34:54;8.60;73.20
3055;DHT22;1537;52.018;8.542;2022-09-28T03:38:18;8.60;73.20
3055;DHT22;1537;52.018;8.542;2022-09-28T03:41:42;8.60;73.10
3055;DHT22;1537;52.018;8.542;2022-09-28T03:45:08;8.60;72.90
3055;DHT22;1537;52.018;8.542;2022-09-28T03:48:34;8.60;72.90
3055;DHT22;1537;52.018;8.542;2022-09-28T03:51:57;8.50;72.90
3055;DHT22;1537;52.018;8.542;2022-09-28T03:55:21;8.50;72.80
3055;DHT22;1537;52.018;8.542;2022-09-28T03:58:45;8.50;73.00
3055;DHT22;1537;52.018;8.542;2022-09-28T04:02:11;8.50;72.90
3055;DHT22;1537;52.018;8.542;2022-09-28T04:05:36;8.50;73.00
3055;DHT22;1537;52.018;8.542;2022-09-28T04:09:00;8.60;73.00
3055;DHT22;1537;52.018;8.542;2022-09-28T04:12:24;8.50;73.10
3055;DHT22;1537;52.018;8.542;2022-09-28T04:15:51;8.60;73.40
3055;DHT22;1537;52.018;8.542;2022-09-28T04:19:17;8.60;73.20
3055;DHT22;1537;52.018;8.542;2022-09-28T04:22:53;8.60;73.10
3055;DHT22;1537;52.018;8.542;2022-09-28T04:26:20;8.60;72.80
3055;DHT22;1537;52.018;8.542;2022-09-28T04:29:44;8.50;72.70
3055;DHT22;1537;52.018;8.542;2022-09-28T04:33:08;8.60;72.80
3055;DHT22;1537;52.018;8.542;2022-09-28T04:36:33;8.50;72.80
3055;DHT22;1537;52.018;8.542;2022-09-28T04:39:57;8.40;72.70
3055;DHT22;1537;52.018;8.542;2022-09-28T04:43:21;8.40;72.90
3055;DHT22;1537;52.018;8.542;2022-09-28T04:46:45;8.40;72.80
3055;DHT22;1537;52.018;8.542;2022-09-28T04:50:23;8.40;72.90
3055;DHT22;1537;52.018;8.542;2022-09-28T04:54:07;8.40;73.00
3055;DHT22;1537;52.018;8.542;2022-09-28T04:57:33;8.40;72.90
3055;DHT22;1537;52.018;8.542;2022-09-28T05:00:58;8.40;72.90
3055;DHT22;1537;52.018;8.542;2022-09-28T05:04:42;8.30;72.90
3055;DHT22;1537;52.018;8.542;2022-09-28T05:08:54;8.30;72.70
3055;DHT22;1537;52.018;8.542;2022-09-28T05:12:30;8.30;73.10
3055;DHT22;1537;52.018;8.542;2022-09-28T05:15:55;8.30;73.10
3055;DHT22;1537;52.018;8.542;2022-09-28T05:19:27;8.50;73.60
3055;DHT22;1537;52.018;8.542;2022-09-28T05:22:56;8.50;73.30
3055;DHT22;1537;52.018;8.542;2022-09-28T05:26:20;8.40;73.20
3055;DHT22;1537;52.018;8.542;2022-09-28T05:29:45;8.40;73.30
3055;DHT22;1537;52.018;8.542;2022-09-28T05:33:30;8.40;73.20
3055;DHT22;1537;52.018;8.542;2022-09-28T05:37:08;8.40;73.10
3055;DHT22;1537;52.018;8.542;2022-09-28T05:40:31;8.50;73.30
3055;DHT22;1537;52.018;8.542;2022-09-28T05:43:55;8.50;73.40
3055;DHT22;1537;52.018;8.542;2022-09-28T05:47:21;8.50;73.10
3055;DHT22;1537;52.018;8.542;2022-09-28T05:50:49;8.50;73.10
3055;DHT22;1537;52.018;8.542;2022-09-28T05:54:13;8.50;72.90
3055;DHT22;1537;52.018;8.542;2022-09-28T05:57:40;8.60;73.00
3055;DHT22;1537;52.018;8.542;2022-09-28T06:01:04;8.60;73.20
3055;DHT22;1537;52.018;8.542;2022-09-28T06:04:29;8.70;73.20
3055;DHT22;1537;52.018;8.542;2022-09-28T06:07:54;8.70;72.90
3055;DHT22;1537;52.018;8.542;2022-09-28T06:11:18;8.70;72.90
3055;DHT22;1537;52.018;8.542;2022-09-28T06:14:42;8.70;72.70
3055;DHT22;1537;52.018;8.542;2022-09-28T06:18:09;8.80;72.70
3055;DHT22;1537;52.018;8.542;2022-09-28T06:21:55;8.90;72.80
3055;DHT22;1537;52.018;8.542;2022-09-28T06:25:22;9.00;72.90
3055;DHT22;1537;52.018;8.542;2022-09-28T06:28:46;9.10;72.50
3055;DHT22;1537;52.018;8.542;2022-09-28T06:32:11;9.10;72.40
3055;DHT22;1537;52.018;8.542;2022-09-28T06:35:37;9.20;72.20
3055;DHT22;1537;52.018;8.542;2022-09-28T06:39:02;9.20;72.30
3055;DHT22;1537;52.018;8.542;2022-09-28T06:42:28;9.40;72.30
3055;DHT22;1537;52.018;8.542;2022-09-28T06:46:12;9.50;71.90
3055;DHT22;1537;52.018;8.542;2022-09-28T06:49:45;9.50;71.60
3055;DHT22;1537;52.018;8.542;2022-09-28T06:53:28;9.60;71.10
3055;DHT22;1537;52.018;8.542;2022-09-28T06:57:11;9.60;70.80
3055;DHT22;1537;52.018;8.542;2022-09-28T07:00:37;9.60;71.50
3055;DHT22;1537;52.018;8.542;2022-09-28T07:04:01;9.70;71.00
3055;DHT22;1537;52.018;8.542;2022-09-28T07:07:51;9.70;70.00
3055;DHT22;1537;52.018;8.542;2022-09-28T07:11:38;9.80;70.30
3055;DHT22;1537;52.018;8.542;2022-09-28T07:15:27;9.70;69.60
3055;DHT22;1537;52.018;8.542;2022-09-28T07:18:51;9.80;69.80
3055;DHT22;1537;52.018;8.542;2022-09-28T07:22:15;9.70;69.70
3055;DHT22;1537;52.018;8.542;2022-09-28T07:25:43;9.80;69.80
3055;DHT22;1537;52.018;8.542;2022-09-28T07:29:22;9.80;69.40
3055;DHT22;1537;52.018;8.542;2022-09-28T07:33:07;9.90;69.40
3055;DHT22;1537;52.018;8.542;2022-09-28T07:36:52;9.90;69.20
3055;DHT22;1537;52.018;8.542;2022-09-28T07:40:18;9.90;69.40
3055;DHT22;1537;52.018;8.542;2022-09-28T07:44:00;10.00;68.00
3055;DHT22;1537;52.018;8.542;2022-09-28T07:47:29;10.10;67.80
3055;DHT22;1537;52.018;8.542;2022-09-28T07:51:18;10.20;67.60
3055;DHT22;1537;52.018;8.542;2022-09-28T07:54:54;10.20;67.00
3055;DHT22;1537;52.018;8.542;2022-09-28T07:58:37;10.20;67.10
3055;DHT22;1537;52.018;8.542;2022-09-28T08:02:25;10.20;67.00
3055;DHT22;1537;52.018;8.542;2022-09-28T08:05:49;10.10;67.10
3055;DHT22;1537;52.018;8.542;2022-09-28T08:09:14;10.00;67.50
3055;DHT22;1537;52.018;8.542;2022-09-28T08:12:57;10.00;67.50
3055;DHT22;1537;52.018;8.542;2022-09-28T08:16:51;10.00;68.10
3055;DHT22;1537;52.018;8.542;2022-09-28T08:20:34;10.00;67.80
3055;DHT22;1537;52.018;8.542;2022-09-28T08:24:17;10.10;67.10
3055;DHT22;1537;52.018;8.542;2022-09-28T08:27:42;10.30;67.50
3055;DHT22;1537;52.018;8.542;2022-09-28T08:31:05;10.50;67.80
3055;DHT22;1537;52.018;8.542;2022-09-28T08:34:49;10.70;66.40
3055;DHT22;1537;52.018;8.542;2022-09-28T08:38:36;10.80;65.30
3055;DHT22;1537;52.018;8.542;2022-09-28T08:42:36;10.70;65.30
3055;DHT22;1537;52.018;8.542;2022-09-28T08:46:41;10.60;65.40
3055;DHT22;1537;52.018;8.542;2022-09-28T08:50:36;10.60;65.80
3055;DHT22;1537;52.018;8.542;2022-09-28T08:54:24;10.70;65.30
3055;DHT22;1537;52.018;8.542;2022-09-28T08:57:56;10.70;65.30
3055;DHT22;1537;52.018;8.542;2022-09-28T09:01:22;10.80;65.20
3055;DHT22;1537;52.018;8.542;2022-09-28T09:04:50;10.90;65.70
3055;DHT22;1537;52.018;8.542;2022-09-28T09:08:29;11.00;65.10
3055;DHT22;1537;52.018;8.542;2022-09-28T09:12:05;11.00;64.50
3055;DHT22;1537;52.018;8.542;2022-09-28T09:15:39;11.10;64.20
3055;DHT22;1537;52.018;8.542;2022-09-28T09:19:29;11.10;64.60
3055;DHT22;1537;52.018;8.542;2022-09-28T09:23:11;11.20;63.50
3055;DHT22;1537;52.018;8.542;2022-09-28T09:26:39;11.30;62.70
3055;DHT22;1537;52.018;8.542;2022-09-28T09:30:09;11.20;62.40
3055;DHT22;1537;52.018;8.542;2022-09-28T09:37:56;11.60;61.40
3055;DHT22;1537;52.018;8.542;2022-09-28T09:41:54;11.90;60.60
3055;DHT22;1537;52.018;8.542;2022-09-28T09:45:52;12.20;59.60
3055;DHT22;1537;52.018;8.542;2022-09-28T09:49:34;12.50;59.00
3055;DHT22;1537;52.018;8.542;2022-09-28T09:53:03;13.00;57.30
3055;DHT22;1537;52.018;8.542;2022-09-28T09:56:32;13.50;56.40
3055;DHT22;1537;52.018;8.542;2022-09-28T10:00:20;13.70;55.10
3055;DHT22;1537;52.018;8.542;2022-09-28T10:03:58;13.90;54.20
3055;DHT22;1537;52.018;8.542;2022-09-28T10:07:27;14.00;54.60
3055;DHT22;1537;52.018;8.542;2022-09-28T10:10:55;13.80;54.10
3055;DHT22;1537;52.018;8.542;2022-09-28T10:14:25;13.50;54.70
3055;DHT22;1537;52.018;8.542;2022-09-28T10:18:02;13.80;55.00
3055;DHT22;1537;52.018;8.542;2022-09-28T10:21:49;14.00;53.10
3055;DHT22;1537;52.018;8.542;2022-09-28T10:25:19;13.60;54.30
3055;DHT22;1537;52.018;8.542;2022-09-28T10:28:47;13.00;56.00
3055;DHT22;1537;52.018;8.542;2022-09-28T10:32:20;13.10;56.90
3055;DHT22;1537;52.018;8.542;2022-09-28T10:35:47;13.10;56.50
3055;DHT22;1537;52.018;8.542;2022-09-28T10:39:27;13.00;57.00
3055;DHT22;1537;52.018;8.542;2022-09-28T10:42:59;13.10;56.70
3055;DHT22;1537;52.018;8.542;2022-09-28T10:46:24;13.60;56.00
3055;DHT22;1537;52.018;8.542;2022-09-28T10:49:51;13.80;55.40
3055;DHT22;1537;52.018;8.542;2022-09-28T10:53:19;14.20;54.10
3055;DHT22;1537;52.018;8.542;2022-09-28T10:56:56;14.20;52.80
3055;DHT22;1537;52.018;8.542;2022-09-28T11:00:36;14.60;52.30
3055;DHT22;1537;52.018;8.542;2022-09-28T11:04:18;14.70;51.70
3055;DHT22;1537;52.018;8.542;2022-09-28T11:07:44;14.40;50.30
3055;DHT22;1537;52.018;8.542;2022-09-28T11:11:14;14.00;50.20
3055;DHT22;1537;52.018;8.542;2022-09-28T11:14:42;13.50;51.50
3055;DHT22;1537;52.018;8.542;2022-09-28T11:18:25;13.30;52.20
3055;DHT22;1537;52.018;8.542;2022-09-28T11:21:49;13.20;53.30
3055;DHT22;1537;52.018;8.542;2022-09-28T11:25:25;13.20;53.90
3055;DHT22;1537;52.018;8.542;2022-09-28T11:28:50;13.40;54.10
3055;DHT22;1537;52.018;8.542;2022-09-28T11:32:38;13.50;53.40
3055;DHT22;1537;52.018;8.542;2022-09-28T11:36:26;13.50;53.70
3055;DHT22;1537;52.018;8.542;2022-09-28T11:40:03;13.50;52.70
3055;DHT22;1537;52.018;8.542;2022-09-28T11:43:48;13.40;51.60
3055;DHT22;1537;52.018;8.542;2022-09-28T11:47:36;13.60;51.70
3055;DHT22;1537;52.018;8.542;2022-09-28T11:51:10;13.60;51.60
3055;DHT22;1537;52.018;8.542;2022-09-28T11:54:43;13.40;53.50
3055;DHT22;1537;52.018;8.542;2022-09-28T11:58:12;12.80;55.10
3055;DHT22;1537;52.018;8.542;2022-09-28T12:01:42;12.10;56.90
3055;DHT22;1537;52.018;8.542;2022-09-28T12:05:15;11.80;58.20
3055;DHT22;1537;52.018;8.542;2022-09-28T12:08:49;12.00;57.90
3055;DHT22;1537;52.018;8.542;2022-09-28T12:12:40;12.20;57.80
3055;DHT22;1537;52.018;8.542;2022-09-28T12:16:12;12.30;56.90
3055;DHT22;1537;52.018;8.542;2022-09-28T12:20:02;12.00;57.40
3055;DHT22;1537;52.018;8.542;2022-09-28T12:23:32;11.70;58.50
3055;DHT22;1537;52.018;8.542;2022-09-28T12:27:02;11.40;59.00
3055;DHT22;1537;52.018;8.542;2022-09-28T12:30:32;11.20;60.90
3055;DHT22;1537;52.018;8.542;2022-09-28T12:33:56;10.60;64.60
3055;DHT22;1537;52.018;8.542;2022-09-28T12:37:36;10.40;67.10
3055;DHT22;1537;52.018;8.542;2022-09-28T12:41:13;10.50;68.60
3055;DHT22;1537;52.018;8.542;2022-09-28T12:44:50;10.60;68.10
3055;DHT22;1537;52.018;8.542;2022-09-28T12:48:47;10.70;67.70
3055;DHT22;1537;52.018;8.542;2022-09-28T12:52:38;10.80;67.10
3055;DHT22;1537;52.018;8.542;2022-09-28T12:56:10;10.40;66.70
3055;DHT22;1537;52.018;8.542;2022-09-28T12:59:50;10.70;67.40
3055;DHT22;1537;52.018;8.542;2022-09-28T13:03:37;11.00;67.50
3055;DHT22;1537;52.018;8.542;2022-09-28T13:07:08;11.10;66.20
3055;DHT22;1537;52.018;8.542;2022-09-28T13:10:40;10.70;66.70
3055;DHT22;1537;52.018;8.542;2022-09-28T13:14:21;10.80;67.90
3055;DHT22;1537;52.018;8.542;2022-09-28T13:17:56;11.00;68.40
3055;DHT22;1537;52.018;8.542;2022-09-28T13:21:27;11.30;68.00
3055;DHT22;1537;52.018;8.542;2022-09-28T13:24:55;11.50;67.20
3055;DHT22;1537;52.018;8.542;2022-09-28T13:28:23;11.50;65.70
3055;DHT22;1537;52.018;8.542;2022-09-28T13:31:50;11.40;64.60
3055;DHT22;1537;52.018;8.542;2022-09-28T13:35:16;11.60;65.10
3055;DHT22;1537;52.018;8.542;2022-09-28T13:38:51;11.90;63.60
3055;DHT22;1537;52.018;8.542;2022-09-28T13:46:17;12.40;62.50
3055;DHT22;1537;52.018;8.542;2022-09-28T13:49:55;12.60;63.10
3055;DHT22;1537;52.018;8.542;2022-09-28T13:53:30;12.60;59.70
3055;DHT22;1537;52.018;8.542;2022-09-28T13:57:15;12.60;59.30
3055;DHT22;1537;52.018;8.542;2022-09-28T14:00:47;12.50;58.60
3055;DHT22;1537;52.018;8.542;2022-09-28T14:04:18;12.50;58.40
3055;DHT22;1537;52.018;8.542;2022-09-28T14:07:57;12.50;58.60
3055;DHT22;1537;52.018;8.542;2022-09-28T14:11:42;12.50;57.90
3055;DHT22;1537;52.018;8.542;2022-09-28T14:15:40;12.40;57.00
3055;DHT22;1537;52.018;8.542;2022-09-28T14:19:08;12.50;57.40
3055;DHT22;1537;52.018;8.542;2022-09-28T14:22:39;12.60;57.70
3055;DHT22;1537;52.018;8.542;2022-09-28T14:30:21;12.80;57.10
3055;DHT22;1537;52.018;8.542;2022-09-28T14:33:55;12.80;57.10
3055;DHT22;1537;52.018;8.542;2022-09-28T14:37:24;12.80;57.70
3055;DHT22;1537;52.018;8.542;2022-09-28T14:41:07;12.80;57.40
3055;DHT22;1537;52.018;8.542;2022-09-28T14:45:31;12.20;56.50
3055;DHT22;1537;52.018;8.542;2022-09-28T14:48:58;12.00;57.50
3055;DHT22;1537;52.018;8.542;2022-09-28T14:52:43;12.00;57.50
3055;DHT22;1537;52.018;8.542;2022-09-28T14:56:11;12.00;56.90
3055;DHT22;1537;52.018;8.542;2022-09-28T14:59:40;12.10;57.20
3055;DHT22;1537;52.018;8.542;2022-09-28T15:03:09;12.40;57.20
3055;DHT22;1537;52.018;8.542;2022-09-28T15:06:43;12.50;56.60
3055;DHT22;1537;52.018;8.542;2022-09-28T15:10:18;12.70;55.50
3055;DHT22;1537;52.018;8.542;2022-09-28T15:13:49;12.90;53.20
3055;DHT22;1537;52.018;8.542;2022-09-28T15:17:18;12.90;53.10
3055;DHT22;1537;52.018;8.542;2022-09-28T15:20:46;13.20;53.20
3055;DHT22;1537;52.018;8.542;2022-09-28T15:24:24;13.50;52.90
3055;DHT22;1537;52.018;8.542;2022-09-28T15:27:51;13.40;52.00
3055;DHT22;1537;52.018;8.542;2022-09-28T15:31:17;13.20;52.30
3055;DHT22;1537;52.018;8.542;2022-09-28T15:34:41;13.00;52.60
3055;DHT22;1537;52.018;8.542;2022-09-28T15:38:15;12.60;53.40
3055;DHT22;1537;52.018;8.542;2022-09-28T15:41:40;12.50;54.40
3055;DHT22;1537;52.018;8.542;2022-09-28T15:45:20;12.50;54.20
3055;DHT22;1537;52.018;8.542;2022-09-28T15:48:51;12.60;54.50
3055;DHT22;1537;52.018;8.542;2022-09-28T15:52:27;12.50;54.20
3055;DHT22;1537;52.018;8.542;2022-09-28T15:56:00;12.60;55.00
3055;DHT22;1537;52.018;8.542;2022-09-28T15:59:27;12.50;54.20
3055;DHT22;1537;52.018;8.542;2022-09-28T16:03:01;12.50;54.00
3055;DHT22;1537;52.018;8.542;2022-09-28T16:06:26;12.50;53.90
3055;DHT22;1537;52.018;8.542;2022-09-28T16:10:27;12.40;53.40
3055;DHT22;1537;52.018;8.542;2022-09-28T16:13:58;12.50;54.60
3055;DHT22;1537;52.018;8.542;2022-09-28T16:17:28;12.50;53.90
3055;DHT22;1537;52.018;8.542;2022-09-28T16:20:54;12.50;54.60
3055;DHT22;1537;52.018;8.542;2022-09-28T16:24:22;12.60;53.40
3055;DHT22;1537;52.018;8.542;2022-09-28T16:27:46;12.50;53.10
3055;DHT22;1537;52.018;8.542;2022-09-28T16:31:24;12.60;54.30
3055;DHT22;1537;52.018;8.542;2022-09-28T16:34:49;12.60;54.70
3055;DHT22;1537;52.018;8.542;2022-09-28T16:38:15;12.40;54.20
3055;DHT22;1537;52.018;8.542;2022-09-28T16:41:39;12.20;55.10
3055;DHT22;1537;52.018;8.542;2022-09-28T16:45:06;12.10;55.60
3055;DHT22;1537;52.018;8.542;2022-09-28T16:48:34;11.90;56.90
3055;DHT22;1537;52.018;8.542;2022-09-28T16:52:00;11.70;57.30
3055;DHT22;1537;52.018;8.542;2022-09-28T16:55:24;11.50;57.90
3055;DHT22;1537;52.018;8.542;2022-09-28T16:59:02;11.40;58.60
3055;DHT22;1537;52.018;8.542;2022-09-28T17:02:26;11.30;59.80
3055;DHT22;1537;52.018;8.542;2022-09-28T17:06:10;11.20;61.00
3055;DHT22;1537;52.018;8.542;2022-09-28T17:09:34;10.90;61.90
3055;DHT22;1537;52.018;8.542;2022-09-28T17:12:58;10.80;62.40
3055;DHT22;1537;52.018;8.542;2022-09-28T17:16:22;10.80;62.50
3055;DHT22;1537;52.018;8.542;2022-09-28T17:20:16;10.80;62.50
3055;DHT22;1537;52.018;8.542;2022-09-28T17:23:46;10.80;62.50
3055;DHT22;1537;52.018;8.542;2022-09-28T17:27:12;10.70;62.40
3055;DHT22;1537;52.018;8.542;2022-09-28T17:30:37;10.70;62.50
3055;DHT22;1537;52.018;8.542;2022-09-28T17:34:01;10.60;62.70
3055;DHT22;1537;52.018;8.542;2022-09-28T17:37:25;10.50;62.90
3055;DHT22;1537;52.018;8.542;2022-09-28T17:40:50;10.40;63.20
3055;DHT22;1537;52.018;8.542;2022-09-28T17:44:14;10.30;63.30
3055;DHT22;1537;52.018;8.542;2022-09-28T17:47:38;10.20;63.40
3055;DHT22;1537;52.018;8.542;2022-09-28T17:51:01;10.20;63.70
3055;DHT22;1537;52.018;8.542;2022-09-28T17:54:27;10.10;64.10
3055;DHT22;1537;52.018;8.542;2022-09-28T17:57:52;10.10;64.10
3055;DHT22;1537;52.018;8.542;2022-09-28T18:01:16;10.00;64.10
3055;DHT22;1537;52.018;8.542;2022-09-28T18:04:39;10.00;64.30
3055;DHT22;1537;52.018;8.542;2022-09-28T18:08:17;9.90;66.40
3055;DHT22;1537;52.018;8.542;2022-09-28T18:11:43;9.90;65.60
3055;DHT22;1537;52.018;8.542;2022-09-28T18:15:09;9.80;66.10
3055;DHT22;1537;52.018;8.542;2022-09-28T18:18:33;9.60;66.20
3055;DHT22;1537;52.018;8.542;2022-09-28T18:21:59;9.60;66.80
3055;DHT22;1537;52.018;8.542;2022-09-28T18:25:23;9.60;67.00
3055;DHT22;1537;52.018;8.542;2022-09-28T18:28:47;9.50;66.90
3055;DHT22;1537;52.018;8.542;2022-09-28T18:32:12;9.50;67.10
3055;DHT22;1537;52.018;8.542;2022-09-28T18:35:35;9.50;67.20
3055;DHT22;1537;52.018;8.542;2022-09-28T18:38:59;9.50;67.20
3055;DHT22;1537;52.018;8.542;2022-09-28T18:42:23;9.40;67.30
3055;DHT22;1537;52.018;8.542;2022-09-28T18:45:47;9.40;67.50
3055;DHT22;1537;52.018;8.542;2022-09-28T18:49:12;9.30;67.50
3055;DHT22;1537;52.018;8.542;2022-09-28T18:52:36;9.30;67.70
3055;DHT22;1537;52.018;8.542;2022-09-28T18:56:04;9.30;67.60
3055;DHT22;1537;52.018;8.542;2022-09-28T18:59:28;9.30;67.80
3055;DHT22;1537;52.018;8.542;2022-09-28T19:02:52;9.30;68.20
3055;DHT22;1537;52.018;8.542;2022-09-28T19:06:17;9.20;68.20
3055;DHT22;1537;52.018;8.542;2022-09-28T19:09:41;9.20;68.40
3055;DHT22;1537;52.018;8.542;2022-09-28T19:13:05;9.20;68.60
3055;DHT22;1537;52.018;8.542;2022-09-28T19:16:30;9.10;68.80
3055;DHT22;1537;52.018;8.542;2022-09-28T19:19:56;9.20;68.80
3055;DHT22;1537;52.018;8.542;2022-09-28T19:23:26;9.10;68.80
3055;DHT22;1537;52.018;8.542;2022-09-28T19:26:50;9.10;69.00
3055;DHT22;1537;52.018;8.542;2022-09-28T19:30:15;9.00;69.20
3055;DHT22;1537;52.018;8.542;2022-09-28T19:33:39;9.00;69.20
3055;DHT22;1537;52.018;8.542;2022-09-28T19:37:06;9.00;69.20
3055;DHT22;1537;52.018;8.542;2022-09-28T19:40:35;9.00;69.10
3055;DHT22;1537;52.018;8.542;2022-09-28T19:44:00;9.00;69.00
3055;DHT22;1537;52.018;8.542;2022-09-28T19:47:25;9.00;69.10
3055;DHT22;1537;52.018;8.542;2022-09-28T19:50:56;9.00;69.10
3055;DHT22;1537;52.018;8.542;2022-09-28T19:54:20;9.00;68.90
3055;DHT22;1537;52.018;8.542;2022-09-28T19:57:48;9.00;68.80
3055;DHT22;1537;52.018;8.542;2022-09-28T20:01:16;9.00;68.80
3055;DHT22;1537;52.018;8.542;2022-09-28T20:04:40;8.90;68.90
3055;DHT22;1537;52.018;8.542;2022-09-28T20:08:04;8.90;68.90
3055;DHT22;1537;52.018;8.542;2022-09-28T20:11:28;8.90;68.90
3055;DHT22;1537;52.018;8.542;2022-09-28T20:14:54;8.90;69.00
3055;DHT22;1537;52.018;8.542;2022-09-28T20:18:19;8.90;69.10
3055;DHT22;1537;52.018;8.542;2022-09-28T20:21:43;8.90;69.00
3055;DHT22;1537;52.018;8.542;2022-09-28T20:25:07;8.80;69.00
3055;DHT22;1537;52.018;8.542;2022-09-28T20:28:31;8.80;69.20
3055;DHT22;1537;52.018;8.542;2022-09-28T20:31:57;8.90;69.20
3055;DHT22;1537;52.018;8.542;2022-09-28T20:35:22;8.90;69.20
3055;DHT22;1537;52.018;8.542;2022-09-28T20:38:54;8.80;69.60
3055;DHT22;1537;52.018;8.542;2022-09-28T20:42:20;8.80;69.80
3055;DHT22;1537;52.018;8.542;2022-09-28T20:45:45;8.90;70.90
3055;DHT22;1537;52.018;8.542;2022-09-28T20:49:10;8.80;70.30
3055;DHT22;1537;52.018;8.542;2022-09-28T20:52:35;8.90;70.60
3055;DHT22;1537;52.018;8.542;2022-09-28T20:56:04;8.80;70.70
3055;DHT22;1537;52.018;8.542;2022-09-28T20:59:29;8.90;70.90
3055;DHT22;1537;52.018;8.542;2022-09-28T21:02:53;8.90;71.00
3055;DHT22;1537;52.018;8.542;2022-09-28T21:06:20;8.80;70.90
3055;DHT22;1537;52.018;8.542;2022-09-28T21:09:44;8.80;71.20
3055;DHT22;1537;52.018;8.542;2022-09-28T21:13:08;8.70;70.90
3055;DHT22;1537;52.018;8.542;2022-09-28T21:16:33;8.70;70.90
3055;DHT22;1537;52.018;8.542;2022-09-28T21:19:57;8.70;71.40
3055;DHT22;1537;52.018;8.542;2022-09-28T21:23:22;8.70;71.30
3055;DHT22;1537;52.018;8.542;2022-09-28T21:26:46;8.60;71.50
3055;DHT22;1537;52.018;8.542;2022-09-28T21:30:11;8.60;72.00
3055;DHT22;1537;52.018;8.542;2022-09-28T21:33:34;8.60;72.50
3055;DHT22;1537;52.018;8.542;2022-09-28T21:36:58;8.60;73.40
3055;DHT22;1537;52.018;8.542;2022-09-28T21:40:23;8.60;72.80
3055;DHT22;1537;52.018;8.542;2022-09-28T21:43:47;8.60;72.90
3055;DHT22;1537;52.018;8.542;2022-09-28T21:47:10;8.60;73.00
3055;DHT22;1537;52.018;8.542;2022-09-28T21:50:34;8.60;73.10
3055;DHT22;1537;52.018;8.542;2022-09-28T21:53:57;8.70;73.10
3055;DHT22;1537;52.018;8.542;2022-09-28T21:57:22;8.70;73.10
3055;DHT22;1537;52.018;8.542;2022-09-28T22:00:46;8.70;73.10
3055;DHT22;1537;52.018;8.542;2022-09-28T22:04:10;8.70;73.10
3055;DHT22;1537;52.018;8.542;2022-09-28T22:07:33;8.70;73.20
3055;DHT22;1537;52.018;8.542;2022-09-28T22:10:57;8.70;73.00
3055;DHT22;1537;52.018;8.542;2022-09-28T22:14:24;8.70;73.00
3055;DHT22;1537;52.018;8.542;2022-09-28T22:17:48;8.70;73.10
3055;DHT22;1537;52.018;8.542;2022-09-28T22:21:14;8.70;73.10
3055;DHT22;1537;52.018;8.542;2022-09-28T22:24:38;8.70;73.20
3055;DHT22;1537;52.018;8.542;2022-09-28T22:28:01;8.70;73.30
3055;DHT22;1537;52.018;8.542;2022-09-28T22:31:27;8.80;73.40
3055;DHT22;1537;52.018;8.542;2022-09-28T22:34:51;8.80;73.20
3055;DHT22;1537;52.018;8.542;2022-09-28T22:38:15;8.90;73.10
3055;DHT22;1537;52.018;8.542;2022-09-28T22:41:39;9.00;73.10
3055;DHT22;1537;52.018;8.542;2022-09-28T22:45:03;9.00;73.00
3055;DHT22;1537;52.018;8.542;2022-09-28T22:48:29;9.00;72.90
3055;DHT22;1537;52.018;8.542;2022-09-28T22:51:52;9.00;73.00
3055;DHT22;1537;52.018;8.542;2022-09-28T22:55:16;9.10;73.10
3055;DHT22;1537;52.018;8.542;2022-09-28T22:58:39;9.10;72.60
3055;DHT22;1537;52.018;8.542;2022-09-28T23:02:03;9.10;72.40
3055;DHT22;1537;52.018;8.542;2022-09-28T23:05:28;9.10;72.70
3055;DHT22;1537;52.018;8.542;2022-09-28T23:08:56;9.20;72.70
3055;DHT22;1537;52.018;8.542;2022-09-28T23:12:20;9.20;72.40
3055;DHT22;1537;52.018;8.542;2022-09-28T23:15:53;9.20;72.40
3055;DHT22;1537;52.018;8.542;2022-09-28T23:19:18;9.20;72.40
3055;DHT22;1537;52.018;8.542;2022-09-28T23:22:46;9.30;72.30